Time,TemperatureF,DewpointF,PressureIn,WindDirection,WindDirectionDegrees,WindSpeedMPH,WindSpeedGustMPH,Humidity,HourlyPrecipIn,Conditions,Clouds,dailyrainin,SolarRadiationWatts/m^2,SoftwareType,DateUTC
2013-09-28 00:00:00,53.6,51.3,30.08,NNE,23,0.0,0.0,92,0.00,,---,0.00,0.00,VWS V14.01,2013-09-28 04:00:00,
2013-09-28 00:01:00,53.6,51.3,30.08,NNE,23,0.0,0.0,92,0.00,,---,0.00,0.00,VWS V14.01,2013-09-28 04:01:00,
2013-09-28 00:05:00,53.4,51.1,30.08,NNE,23,0.0,0.0,92,0.00,,---,0.00,0.00,VWS V14.01,2013-09-28 04:05:00,
2013-09-28 00:06:00,53.3,51.0,30.08,NNE,23,0.0,0.0,92,0.00,,---,0.00,0.00,VWS V14.01,2013-09-28 04:06:00,
2013-09-28 00:10:00,53.1,50.8,30.08,NNE,23,0.0,0.0,92,0.00,,---,0.00,0.00,VWS V14.01,2013-09-28 04:10:00,
2013-09-28 00:11:00,53.0,50.7,30.08,NNE,23,0.0,0.0,92,0.00,,---,0.00,0.00,VWS V14.01,2013-09-28 04:11:00,
2013-09-28 00:15:00,52.8,50.5,30.08,NNE,23,0.0,0.0,92,0.00,,---,0.00,0.00,VWS V14.01,2013-09-28 04:15:00,
2013-09-28 00:16:00,52.7,50.5,30.08,NNE,23,0.0,0.0,92,0.00,,---,0.00,0.00,VWS V14.01,2013-09-28 04:16:00,
2013-09-28 00:21:00,52.5,50.2,30.08,NNE,23,0.0,0.0,92,0.00,,---,0.00,0.00,VWS V14.01,2013-09-28 04:21:00,
2013-09-28 00:25:00,52.3,50.0,30.08,NNE,23,0.0,0.0,92,0.00,,---,0.00,0.00,VWS V14.01,2013-09-28 04:25:00,
2013-09-28 00:26:00,52.2,50.0,30.08,NNE,23,0.0,0.0,92,0.00,,---,0.00,0.00,VWS V14.01,2013-09-28 04:26:00,
2013-09-28 00:30:00,52.2,50.0,30.08,NNE,23,0.0,0.0,92,0.00,,---,0.00,0.00,VWS V14.01,2013-09-28 04:30:00,
2013-09-28 00:31:00,52.2,50.2,30.08,NNE,23,0.0,0.0,93,0.00,,---,0.00,0.00,VWS V14.01,2013-09-28 04:31:00,
2013-09-28 00:35:00,52.2,50.2,30.08,NNE,23,0.0,0.0,93,0.00,,---,0.00,0.00,VWS V14.01,2013-09-28 04:35:00,
2013-09-28 00:36:00,52.3,50.3,30.08,NNE,23,0.0,0.0,93,0.00,,---,0.00,0.00,VWS V14.01,2013-09-28 04:36:00,
2013-09-28 00:40:00,52.3,50.3,30.08,NNE,23,0.0,0.0,93,0.00,,---,0.00,0.00,VWS V14.01,2013-09-28 04:40:00,
2013-09-28 00:41:00,52.4,50.4,30.08,NNE,23,0.0,0.0,93,0.00,,---,0.00,0.00,VWS V14.01,2013-09-28 04:41:00,
2013-09-28 00:45:00,52.5,50.8,30.08,NNE,23,0.0,0.0,94,0.00,,---,0.00,0.00,VWS V14.01,2013-09-28 04:45:00,
2013-09-28 00:46:00,52.5,50.8,30.07,NNE,23,0.0,0.0,94,0.00,,---,0.00,0.00,VWS V14.01,2013-09-28 04:46:00,
2013-09-28 00:50:00,52.6,50.9,30.07,NNE,23,0.0,0.0,94,0.00,,---,0.00,0.00,VWS V14.01,2013-09-28 04:50:00,
2013-09-28 00:51:00,52.6,50.9,30.07,NNE,23,0.0,0.0,94,0.00,,---,0.00,0.00,VWS V14.01,2013-09-28 04:51:00,
2013-09-28 00:55:00,52.6,50.9,30.07,NNE,23,0.0,0.0,94,0.00,,---,0.00,0.00,VWS V14.01,2013-09-28 04:55:00,
2013-09-28 00:56:00,52.6,50.9,30.07,NNE,23,0.0,0.0,94,0.00,,---,0.00,0.00,VWS V14.01,2013-09-28 04:56:00,
2013-09-28 01:00:00,52.7,51.0,30.07,NNE,23,0.0,0.0,94,0.00,,---,0.00,0.00,VWS V14.01,2013-09-28 05:00:00,
2013-09-28 01:01:00,52.7,51.0,30.07,NNE,23,0.0,0.0,94,0.00,,---,0.00,0.00,VWS V14.01,2013-09-28 05:01:00,
2013-09-28 01:05:00,52.7,51.0,30.07,NNE,23,0.0,0.0,94,0.00,,---,0.00,0.00,VWS V14.01,2013-09-28 05:05:00,
2013-09-28 01:06:00,52.8,51.1,30.07,NNE,23,0.0,0.0,94,0.00,,---,0.00,0.00,VWS V14.01,2013-09-28 05:06:00,
2013-09-28 01:10:00,52.8,51.1,30.07,NNE,23,0.0,0.0,94,0.00,,---,0.00,0.00,VWS V14.01,2013-09-28 05:10:00,
2013-09-28 01:11:00,52.8,51.1,30.07,NNE,23,0.0,0.0,94,0.00,,---,0.00,0.00,VWS V14.01,2013-09-28 05:11:00,
2013-09-28 01:15:00,52.8,51.1,30.07,NNE,23,0.0,0.0,94,0.00,,---,0.00,0.00,VWS V14.01,2013-09-28 05:15:00,
2013-09-28 01:16:00,52.8,51.1,30.07,NNE,23,0.0,0.0,94,0.00,,---,0.00,0.00,VWS V14.01,2013-09-28 05:16:00,
2013-09-28 01:20:00,52.8,51.1,30.07,NNE,23,0.0,0.0,94,0.00,,---,0.00,0.00,VWS V14.01,2013-09-28 05:20:00,
2013-09-28 01:21:00,52.7,51.0,30.07,NNE,23,0.0,0.0,94,0.00,,---,0.00,0.00,VWS V14.01,2013-09-28 05:21:00,
2013-09-28 01:25:00,52.6,50.9,30.07,NNE,23,0.0,0.0,94,0.00,,---,0.00,0.00,VWS V14.01,2013-09-28 05:25:00,
2013-09-28 01:26:00,52.6,50.9,30.07,NNE,23,0.0,0.0,94,0.00,,---,0.00,0.00,VWS V14.01,2013-09-28 05:26:00,
2013-09-28 01:30:00,52.4,50.7,30.07,NNE,23,0.0,0.0,94,0.00,,---,0.00,0.00,VWS V14.01,2013-09-28 05:30:00,
2013-09-28 01:31:00,52.3,50.6,30.08,NNE,23,0.0,0.0,94,0.00,,---,0.00,0.00,VWS V14.01,2013-09-28 05:31:00,
2013-09-28 01:35:00,52.1,50.4,30.08,NNE,23,0.0,0.0,94,0.00,,---,0.00,0.00,VWS V14.01,2013-09-28 05:35:00,
2013-09-28 01:36:00,51.9,49.9,30.08,NNE,23,0.0,0.0,93,0.00,,---,0.00,0.00,VWS V14.01,2013-09-28 05:36:00,
2013-09-28 01:40:00,51.7,49.8,30.08,NNE,23,0.0,0.0,93,0.00,,---,0.00,0.00,VWS V14.01,2013-09-28 05:40:00,
2013-09-28 01:41:00,51.7,50.0,30.08,NNE,23,0.0,0.0,94,0.00,,---,0.00,0.00,VWS V14.01,2013-09-28 05:41:00,
2013-09-28 01:45:00,51.5,49.5,30.08,NNE,23,0.0,0.0,93,0.00,,---,0.00,0.00,VWS V14.01,2013-09-28 05:45:00,
2013-09-28 01:46:00,51.4,49.5,30.08,NNE,23,0.0,0.0,93,0.00,,---,0.00,0.00,VWS V14.01,2013-09-28 05:46:00,
2013-09-28 01:50:00,51.2,49.2,30.08,NNE,23,0.0,0.0,93,0.00,,---,0.00,0.00,VWS V14.01,2013-09-28 05:50:00,
2013-09-28 01:51:00,51.1,49.2,30.08,NNE,23,0.0,0.0,93,0.00,,---,0.00,0.00,VWS V14.01,2013-09-28 05:51:00,
2013-09-28 01:55:00,51.0,49.0,30.08,NNE,23,0.0,0.0,93,0.00,,---,0.00,0.00,VWS V14.01,2013-09-28 05:55:00,
2013-09-28 01:56:00,50.9,49.0,30.08,NNE,23,0.0,0.0,93,0.00,,---,0.00,0.00,VWS V14.01,2013-09-28 05:56:00,
2013-09-28 02:00:00,50.7,48.8,30.08,NNE,23,0.0,0.0,93,0.00,,---,0.00,0.00,VWS V14.01,2013-09-28 06:00:00,
2013-09-28 02:01:00,50.7,48.8,30.08,NNE,23,0.0,0.0,93,0.00,,---,0.00,0.00,VWS V14.01,2013-09-28 06:01:00,
2013-09-28 02:05:00,50.5,48.6,30.07,NNE,23,0.0,0.0,93,0.00,,---,0.00,0.00,VWS V14.01,2013-09-28 06:05:00,
2013-09-28 02:06:00,50.5,48.6,30.08,NNE,23,0.0,0.0,93,0.00,,---,0.00,0.00,VWS V14.01,2013-09-28 06:06:00,
2013-09-28 02:10:00,50.4,48.7,30.08,NNE,23,0.0,0.0,94,0.00,,---,0.00,0.00,VWS V14.01,2013-09-28 06:10:00,
2013-09-28 02:11:00,50.3,48.6,30.08,NNE,23,0.0,0.0,94,0.00,,---,0.00,0.00,VWS V14.01,2013-09-28 06:11:00,
2013-09-28 02:15:00,50.3,48.6,30.08,NNE,23,0.0,0.0,94,0.00,,---,0.00,0.00,VWS V14.01,2013-09-28 06:15:00,
2013-09-28 02:16:00,50.2,48.5,30.08,NNE,23,0.0,0.0,94,0.00,,---,0.00,0.00,VWS V14.01,2013-09-28 06:16:00,
2013-09-28 02:20:00,50.2,48.5,30.08,NNE,23,0.0,0.0,94,0.00,,---,0.00,0.00,VWS V14.01,2013-09-28 06:20:00,
2013-09-28 02:21:00,50.1,48.4,30.08,NNE,23,0.0,0.0,94,0.00,,---,0.00,0.00,VWS V14.01,2013-09-28 06:21:00,
2013-09-28 02:25:00,50.1,48.4,30.08,NNE,23,0.0,0.0,94,0.00,,---,0.00,0.00,VWS V14.01,2013-09-28 06:25:00,
2013-09-28 02:26:00,50.0,48.3,30.08,NNE,23,0.0,0.0,94,0.00,,---,0.00,0.00,VWS V14.01,2013-09-28 06:26:00,
2013-09-28 02:30:00,50.0,48.3,30.08,NNE,23,0.0,0.0,94,0.00,,---,0.00,0.00,VWS V14.01,2013-09-28 06:30:00,
2013-09-28 02:31:00,49.9,48.2,30.08,NNE,23,0.0,0.0,94,0.00,,---,0.00,0.00,VWS V14.01,2013-09-28 06:31:00,
2013-09-28 02:35:00,49.9,48.2,30.08,NNE,23,0.0,0.0,94,0.00,,---,0.00,0.00,VWS V14.01,2013-09-28 06:35:00,
2013-09-28 02:36:00,49.8,48.2,30.08,NNE,23,0.0,0.0,94,0.00,,---,0.00,0.00,VWS V14.01,2013-09-28 06:36:00,
2013-09-28 02:40:00,49.7,48.0,30.08,NNE,23,0.0,0.0,94,0.00,,---,0.00,0.00,VWS V14.01,2013-09-28 06:40:00,
2013-09-28 02:41:00,49.7,48.0,30.08,NNE,23,0.0,0.0,94,0.00,,---,0.00,0.00,VWS V14.01,2013-09-28 06:41:00,
2013-09-28 02:45:00,49.6,48.0,30.08,NNE,23,0.0,0.0,94,0.00,,---,0.00,0.00,VWS V14.01,2013-09-28 06:45:00,
2013-09-28 02:46:00,49.6,48.0,30.08,NNE,23,0.0,0.0,94,0.00,,---,0.00,0.00,VWS V14.01,2013-09-28 06:46:00,
2013-09-28 02:50:00,49.6,48.0,30.08,NNE,23,0.0,0.0,94,0.00,,---,0.00,0.00,VWS V14.01,2013-09-28 06:50:00,
2013-09-28 02:51:00,49.6,48.0,30.08,NNE,23,0.0,0.0,94,0.00,,---,0.00,0.00,VWS V14.01,2013-09-28 06:51:00,
2013-09-28 02:55:00,49.7,48.0,30.08,NNE,23,0.0,0.0,94,0.00,,---,0.00,0.00,VWS V14.01,2013-09-28 06:55:00,
2013-09-28 02:56:00,49.8,48.2,30.08,NNE,23,0.0,0.0,94,0.00,,---,0.00,0.00,VWS V14.01,2013-09-28 06:56:00,
2013-09-28 03:00:00,49.9,48.2,30.08,NNE,23,0.0,0.0,94,0.00,,---,0.00,0.00,VWS V14.01,2013-09-28 07:00:00,
2013-09-28 03:01:00,50.0,48.6,30.08,NNE,23,0.0,0.0,95,0.00,,---,0.00,0.00,VWS V14.01,2013-09-28 07:01:00,
2013-09-28 03:05:00,50.1,48.7,30.08,NNE,23,0.0,0.0,95,0.00,,---,0.00,0.00,VWS V14.01,2013-09-28 07:05:00,
2013-09-28 03:06:00,50.1,48.7,30.08,NNE,23,0.0,0.0,95,0.00,,---,0.00,0.00,VWS V14.01,2013-09-28 07:06:00,
2013-09-28 03:10:00,50.2,48.8,30.08,NNE,23,0.0,0.0,95,0.00,,---,0.00,0.00,VWS V14.01,2013-09-28 07:10:00,
2013-09-28 03:11:00,50.2,48.8,30.08,NNE,23,0.0,0.0,95,0.00,,---,0.00,0.00,VWS V14.01,2013-09-28 07:11:00,
2013-09-28 03:15:00,50.1,48.7,30.07,NNE,23,0.0,0.0,95,0.00,,---,0.00,0.00,VWS V14.01,2013-09-28 07:15:00,
2013-09-28 03:16:00,50.1,48.7,30.07,NNE,23,0.0,0.0,95,0.00,,---,0.00,0.00,VWS V14.01,2013-09-28 07:16:00,
2013-09-28 03:20:00,50.0,48.6,30.07,NNE,23,0.0,0.0,95,0.00,,---,0.00,0.00,VWS V14.01,2013-09-28 07:20:00,
2013-09-28 03:21:00,50.0,48.6,30.08,NNE,23,0.0,0.0,95,0.00,,---,0.00,0.00,VWS V14.01,2013-09-28 07:21:00,
2013-09-28 03:25:00,49.8,48.2,30.07,NNE,23,0.0,0.0,94,0.00,,---,0.00,0.00,VWS V14.01,2013-09-28 07:25:00,
2013-09-28 03:26:00,49.7,48.0,30.08,NNE,23,0.0,0.0,94,0.00,,---,0.00,0.00,VWS V14.01,2013-09-28 07:26:00,
2013-09-28 03:30:00,49.5,47.8,30.08,NNE,23,0.0,0.0,94,0.00,,---,0.00,0.00,VWS V14.01,2013-09-28 07:30:00,
2013-09-28 03:31:00,49.4,47.8,30.08,NNE,23,0.0,0.0,94,0.00,,---,0.00,0.00,VWS V14.01,2013-09-28 07:31:00,
2013-09-28 03:35:00,49.3,47.7,30.08,NNE,23,0.0,0.0,94,0.00,,---,0.00,0.00,VWS V14.01,2013-09-28 07:35:00,
2013-09-28 03:36:00,49.2,47.5,30.08,NNE,23,0.0,0.0,94,0.00,,---,0.00,0.00,VWS V14.01,2013-09-28 07:36:00,
2013-09-28 03:40:00,49.1,47.5,30.08,NNE,23,0.0,0.0,94,0.00,,---,0.00,0.00,VWS V14.01,2013-09-28 07:40:00,
2013-09-28 03:41:00,49.0,47.3,30.08,NNE,23,0.0,0.0,94,0.00,,---,0.00,0.00,VWS V14.01,2013-09-28 07:41:00,
2013-09-28 03:45:00,48.9,47.2,30.08,NNE,23,0.0,0.0,94,0.00,,---,0.00,0.00,VWS V14.01,2013-09-28 07:45:00,
2013-09-28 03:46:00,48.8,47.2,30.08,NNE,23,0.0,0.0,94,0.00,,---,0.00,0.00,VWS V14.01,2013-09-28 07:46:00,
2013-09-28 03:50:00,48.7,47.0,30.08,NNE,23,0.0,0.0,94,0.00,,---,0.00,0.00,VWS V14.01,2013-09-28 07:50:00,
2013-09-28 03:51:00,48.7,47.0,30.08,NNE,23,0.0,0.0,94,0.00,,---,0.00,0.00,VWS V14.01,2013-09-28 07:51:00,
2013-09-28 03:55:00,48.6,47.0,30.08,NNE,23,0.0,0.0,94,0.00,,---,0.00,0.00,VWS V14.01,2013-09-28 07:55:00,
2013-09-28 03:56:00,48.6,47.0,30.08,NNE,23,0.0,0.0,94,0.00,,---,0.00,0.00,VWS V14.01,2013-09-28 07:56:00,
2013-09-28 04:00:00,48.5,46.9,30.08,NNE,23,0.0,0.0,94,0.00,,---,0.00,0.00,VWS V14.01,2013-09-28 08:00:00,
2013-09-28 04:01:00,48.5,46.9,30.08,NNE,23,0.0,0.0,94,0.00,,---,0.00,0.00,VWS V14.01,2013-09-28 08:01:00,
2013-09-28 04:05:00,48.4,46.8,30.08,NNE,23,0.0,0.0,94,0.00,,---,0.00,0.00,VWS V14.01,2013-09-28 08:05:00,
2013-09-28 04:06:00,48.4,47.0,30.08,NNE,23,0.0,0.0,95,0.00,,---,0.00,0.00,VWS V14.01,2013-09-28 08:06:00,
2013-09-28 04:10:00,48.4,47.0,30.08,NNE,23,0.0,0.0,95,0.00,,---,0.00,0.00,VWS V14.01,2013-09-28 08:10:00,
2013-09-28 04:11:00,48.4,47.0,30.08,NNE,23,0.0,0.0,95,0.00,,---,0.00,0.00,VWS V14.01,2013-09-28 08:11:00,
2013-09-28 04:15:00,48.4,47.0,30.08,NNE,23,0.0,0.0,95,0.00,,---,0.00,0.00,VWS V14.01,2013-09-28 08:15:00,
2013-09-28 04:16:00,48.4,47.0,30.08,NNE,23,0.0,0.0,95,0.00,,---,0.00,0.00,VWS V14.01,2013-09-28 08:16:00,
2013-09-28 04:20:00,48.3,46.9,30.08,NNE,23,0.0,0.0,95,0.00,,---,0.00,0.00,VWS V14.01,2013-09-28 08:20:00,
2013-09-28 04:21:00,48.4,47.0,30.08,NNE,23,0.0,0.0,95,0.00,,---,0.00,0.00,VWS V14.01,2013-09-28 08:21:00,
2013-09-28 04:25:00,48.4,47.0,30.08,NNE,23,0.0,0.0,95,0.00,,---,0.00,0.00,VWS V14.01,2013-09-28 08:25:00,
2013-09-28 04:27:00,48.5,47.1,30.08,NNE,23,0.0,0.0,95,0.00,,---,0.00,0.00,VWS V14.01,2013-09-28 08:27:00,
2013-09-28 04:30:00,48.5,47.1,30.08,NNE,23,0.0,0.0,95,0.00,,---,0.00,0.00,VWS V14.01,2013-09-28 08:30:00,
2013-09-28 04:32:00,48.5,47.1,30.08,NNE,23,0.0,0.0,95,0.00,,---,0.00,0.00,VWS V14.01,2013-09-28 08:32:00,
2013-09-28 04:35:00,48.4,47.0,30.08,NNE,23,0.0,0.0,95,0.00,,---,0.00,0.00,VWS V14.01,2013-09-28 08:35:00,
2013-09-28 04:37:00,48.5,47.1,30.08,NNE,23,0.0,0.0,95,0.00,,---,0.00,0.00,VWS V14.01,2013-09-28 08:37:00,
2013-09-28 04:40:00,48.5,47.1,30.08,NNE,23,0.0,0.0,95,0.00,,---,0.00,0.00,VWS V14.01,2013-09-28 08:40:00,
2013-09-28 04:42:00,48.4,47.0,30.08,NNE,23,0.0,0.0,95,0.00,,---,0.00,0.00,VWS V14.01,2013-09-28 08:42:00,
2013-09-28 04:45:00,48.4,47.0,30.08,NNE,23,0.0,0.0,95,0.00,,---,0.00,0.00,VWS V14.01,2013-09-28 08:45:00,
2013-09-28 04:47:00,48.4,47.0,30.08,NNE,23,0.0,0.0,95,0.00,,---,0.00,0.00,VWS V14.01,2013-09-28 08:47:00,
2013-09-28 04:50:00,48.4,47.0,30.08,NNE,23,0.0,0.0,95,0.00,,---,0.00,0.00,VWS V14.01,2013-09-28 08:50:00,
2013-09-28 04:52:00,48.3,46.9,30.08,NNE,23,0.0,0.0,95,0.00,,---,0.00,0.00,VWS V14.01,2013-09-28 08:52:00,
2013-09-28 04:55:00,48.3,46.9,30.09,NNE,23,0.0,0.0,95,0.00,,---,0.00,0.00,VWS V14.01,2013-09-28 08:55:00,
2013-09-28 04:57:00,48.3,46.9,30.08,NNE,23,0.0,0.0,95,0.00,,---,0.00,0.00,VWS V14.01,2013-09-28 08:57:00,
2013-09-28 05:00:00,48.2,46.8,30.09,NNE,23,0.0,0.0,95,0.00,,---,0.00,0.00,VWS V14.01,2013-09-28 09:00:00,
2013-09-28 05:02:00,48.2,46.8,30.09,NNE,23,0.0,0.0,95,0.00,,---,0.00,0.00,VWS V14.01,2013-09-28 09:02:00,
2013-09-28 05:05:00,48.1,46.7,30.09,NNE,23,0.0,0.0,95,0.00,,---,0.00,0.00,VWS V14.01,2013-09-28 09:05:00,
2013-09-28 05:07:00,48.1,46.7,30.09,NNE,23,0.0,0.0,95,0.00,,---,0.00,0.00,VWS V14.01,2013-09-28 09:07:00,
2013-09-28 05:10:00,48.0,46.6,30.09,NNE,23,0.0,0.0,95,0.00,,---,0.00,0.00,VWS V14.01,2013-09-28 09:10:00,
2013-09-28 05:12:00,48.0,46.6,30.09,NNE,23,0.0,0.0,95,0.00,,---,0.00,0.00,VWS V14.01,2013-09-28 09:12:00,
2013-09-28 05:15:00,48.0,46.6,30.09,NNE,23,0.0,0.0,95,0.00,,---,0.00,0.00,VWS V14.01,2013-09-28 09:15:00,
2013-09-28 05:17:00,47.9,46.5,30.09,NNE,23,0.0,0.0,95,0.00,,---,0.00,0.00,VWS V14.01,2013-09-28 09:17:00,
2013-09-28 05:20:00,47.9,46.5,30.09,NNE,23,0.0,0.0,95,0.00,,---,0.00,0.00,VWS V14.01,2013-09-28 09:20:00,
2013-09-28 05:22:00,47.8,46.4,30.09,NNE,23,0.0,0.0,95,0.00,,---,0.00,0.00,VWS V14.01,2013-09-28 09:22:00,
2013-09-28 05:25:00,47.8,46.4,30.09,NNE,23,0.0,0.0,95,0.00,,---,0.00,0.00,VWS V14.01,2013-09-28 09:25:00,
2013-09-28 05:27:00,47.7,46.3,30.09,NNE,23,0.0,0.0,95,0.00,,---,0.00,0.00,VWS V14.01,2013-09-28 09:27:00,
2013-09-28 05:30:00,47.6,46.2,30.09,NNE,23,0.0,0.0,95,0.00,,---,0.00,0.00,VWS V14.01,2013-09-28 09:30:00,
2013-09-28 05:32:00,47.6,46.2,30.10,NNE,23,0.0,0.0,95,0.00,,---,0.00,0.00,VWS V14.01,2013-09-28 09:32:00,
2013-09-28 05:37:00,47.4,46.0,30.10,NNE,23,0.0,0.0,95,0.00,,---,0.00,0.00,VWS V14.01,2013-09-28 09:37:00,
2013-09-28 05:40:00,47.2,45.8,30.10,NNE,23,0.0,0.0,95,0.00,,---,0.00,0.00,VWS V14.01,2013-09-28 09:40:00,
2013-09-28 05:42:00,47.2,45.8,30.10,NNE,23,0.0,0.0,95,0.00,,---,0.00,0.00,VWS V14.01,2013-09-28 09:42:00,
2013-09-28 05:47:00,47.0,45.7,30.10,NNE,23,0.0,0.0,95,0.00,,---,0.00,0.00,VWS V14.01,2013-09-28 09:47:00,
2013-09-28 05:52:00,46.9,45.5,30.10,NNE,23,0.0,0.0,95,0.00,,---,0.00,0.00,VWS V14.01,2013-09-28 09:52:00,
2013-09-28 05:55:00,46.9,45.5,30.10,NNE,23,0.0,0.0,95,0.00,,---,0.00,0.00,VWS V14.01,2013-09-28 09:55:00,
2013-09-28 05:57:00,46.9,45.5,30.10,NNE,23,0.0,0.0,95,0.00,,---,0.00,0.00,VWS V14.01,2013-09-28 09:57:00,
2013-09-28 06:00:00,46.8,45.5,30.10,NNE,23,0.0,0.0,95,0.00,,---,0.00,0.00,VWS V14.01,2013-09-28 10:00:00,
2013-09-28 06:02:00,46.8,45.5,30.10,NNE,23,0.0,0.0,95,0.00,,---,0.00,0.00,VWS V14.01,2013-09-28 10:02:00,
2013-09-28 06:07:00,46.7,45.3,30.10,NNE,23,0.0,0.0,95,0.00,,---,0.00,0.00,VWS V14.01,2013-09-28 10:07:00,
2013-09-28 06:10:00,46.7,45.3,30.10,NNE,23,0.0,0.0,95,0.00,,---,0.00,0.00,VWS V14.01,2013-09-28 10:10:00,
2013-09-28 06:12:00,46.6,45.2,30.10,NNE,23,0.0,0.0,95,0.00,,---,0.00,0.00,VWS V14.01,2013-09-28 10:12:00,
2013-09-28 06:15:00,46.6,45.2,30.10,NNE,23,0.0,0.0,95,0.00,,---,0.00,0.00,VWS V14.01,2013-09-28 10:15:00,
2013-09-28 06:17:00,46.5,45.2,30.11,NNE,23,0.0,0.0,95,0.00,,---,0.00,0.00,VWS V14.01,2013-09-28 10:17:00,
2013-09-28 06:20:00,46.5,45.2,30.11,NNE,23,0.0,0.0,95,0.00,,---,0.00,0.00,VWS V14.01,2013-09-28 10:20:00,
2013-09-28 06:22:00,46.4,45.0,30.10,NNE,23,0.0,0.0,95,0.00,,---,0.00,0.00,VWS V14.01,2013-09-28 10:22:00,
2013-09-28 06:25:00,46.4,45.0,30.10,NNE,23,0.0,0.0,95,0.00,,---,0.00,0.00,VWS V14.01,2013-09-28 10:25:00,
2013-09-28 06:27:00,46.5,45.4,30.10,NNE,23,0.0,0.0,96,0.00,,---,0.00,0.00,VWS V14.01,2013-09-28 10:27:00,
2013-09-28 06:30:00,46.7,45.6,30.11,NNE,23,0.0,0.0,96,0.00,,---,0.00,0.00,VWS V14.01,2013-09-28 10:30:00,
2013-09-28 06:32:00,46.8,45.7,30.11,NNE,23,0.0,0.0,96,0.00,,---,0.00,0.00,VWS V14.01,2013-09-28 10:32:00,
2013-09-28 06:35:00,47.0,45.9,30.11,NNE,23,0.0,0.0,96,0.00,,---,0.00,0.00,VWS V14.01,2013-09-28 10:35:00,
2013-09-28 06:37:00,47.0,45.9,30.11,NNE,23,0.0,0.0,96,0.00,,---,0.00,0.00,VWS V14.01,2013-09-28 10:37:00,
2013-09-28 06:40:00,47.1,46.0,30.11,NNE,23,0.0,0.0,96,0.00,,---,0.00,0.00,VWS V14.01,2013-09-28 10:40:00,
2013-09-28 06:42:00,47.2,46.1,30.11,NNE,23,0.0,0.0,96,0.00,,---,0.00,0.00,VWS V14.01,2013-09-28 10:42:00,
2013-09-28 06:45:00,47.3,46.2,30.11,NNE,23,0.0,0.0,96,0.00,,---,0.00,0.00,VWS V14.01,2013-09-28 10:45:00,
2013-09-28 06:47:00,47.3,46.2,30.11,NNE,23,0.0,0.0,96,0.00,,---,0.00,0.00,VWS V14.01,2013-09-28 10:47:00,
2013-09-28 06:50:00,47.3,46.2,30.11,NNE,23,0.0,0.0,96,0.00,,---,0.00,0.00,VWS V14.01,2013-09-28 10:50:00,
2013-09-28 06:52:00,47.4,46.3,30.11,NNE,23,0.0,0.0,96,0.00,,---,0.00,0.00,VWS V14.01,2013-09-28 10:52:00,
2013-09-28 06:55:00,47.4,46.3,30.11,NNE,23,0.0,0.0,96,0.00,,---,0.00,0.00,VWS V14.01,2013-09-28 10:55:00,
2013-09-28 06:57:00,47.3,46.2,30.11,NNE,23,0.0,0.0,96,0.00,,---,0.00,0.00,VWS V14.01,2013-09-28 10:57:00,
2013-09-28 07:00:00,47.2,45.8,30.11,NNE,23,0.0,0.0,95,0.00,,---,0.00,0.00,VWS V14.01,2013-09-28 11:00:00,
2013-09-28 07:02:00,47.1,45.7,30.12,NNE,23,0.0,0.0,95,0.00,,---,0.00,0.00,VWS V14.01,2013-09-28 11:02:00,
2013-09-28 07:05:00,47.0,45.7,30.12,NNE,23,0.0,0.0,95,0.00,,---,0.00,0.00,VWS V14.01,2013-09-28 11:05:00,
2013-09-28 07:07:00,46.9,45.5,30.12,NNE,23,0.0,0.0,95,0.00,,---,0.00,0.00,VWS V14.01,2013-09-28 11:07:00,
2013-09-28 07:10:00,46.8,45.5,30.12,NNE,23,0.0,0.0,95,0.00,,---,0.00,0.00,VWS V14.01,2013-09-28 11:10:00,
2013-09-28 07:12:00,46.7,45.3,30.12,NNE,23,0.0,0.0,95,0.00,,---,0.00,0.00,VWS V14.01,2013-09-28 11:12:00,
2013-09-28 07:15:00,46.5,45.2,30.13,NNE,23,0.0,0.0,95,0.00,,---,0.00,0.00,VWS V14.01,2013-09-28 11:15:00,
2013-09-28 07:17:00,46.4,45.0,30.13,NNE,23,0.0,0.0,95,0.00,,---,0.00,0.00,VWS V14.01,2013-09-28 11:17:00,
2013-09-28 07:20:00,46.2,44.8,30.13,NNE,23,0.0,0.0,95,0.00,,---,0.00,0.00,VWS V14.01,2013-09-28 11:20:00,
2013-09-28 07:22:00,46.1,44.8,30.13,NNE,23,0.0,0.0,95,0.00,,---,0.00,0.00,VWS V14.01,2013-09-28 11:22:00,
2013-09-28 07:25:00,45.9,44.5,30.13,NNE,23,0.0,0.0,95,0.00,,---,0.00,5.00,VWS V14.01,2013-09-28 11:25:00,
2013-09-28 07:27:00,45.8,44.5,30.13,NNE,23,0.0,0.0,95,0.00,,---,0.00,5.00,VWS V14.01,2013-09-28 11:27:00,
2013-09-28 07:30:00,45.8,44.5,30.13,NNE,23,0.0,0.0,95,0.00,,---,0.00,7.00,VWS V14.01,2013-09-28 11:30:00,
2013-09-28 07:32:00,45.8,44.5,30.13,NNE,23,0.0,0.0,95,0.00,,---,0.00,9.00,VWS V14.01,2013-09-28 11:32:00,
2013-09-28 07:35:00,45.8,44.7,30.13,NNE,23,0.0,0.0,96,0.00,,---,0.00,9.00,VWS V14.01,2013-09-28 11:35:00,
2013-09-28 07:37:00,45.9,44.8,30.13,NNE,23,0.0,0.0,96,0.00,,---,0.00,11.00,VWS V14.01,2013-09-28 11:37:00,
2013-09-28 07:40:00,46.0,44.9,30.13,NNE,23,0.0,0.0,96,0.00,,---,0.00,11.00,VWS V14.01,2013-09-28 11:40:00,
2013-09-28 07:42:00,46.1,45.0,30.13,NNE,23,0.0,0.0,96,0.00,,---,0.00,12.00,VWS V14.01,2013-09-28 11:42:00,
2013-09-28 07:45:00,46.2,45.1,30.13,NNE,23,0.0,0.0,96,0.00,,---,0.00,14.00,VWS V14.01,2013-09-28 11:45:00,
2013-09-28 07:47:00,46.3,45.2,30.13,NNE,23,0.0,0.0,96,0.00,,---,0.00,14.00,VWS V14.01,2013-09-28 11:47:00,
2013-09-28 07:50:00,46.3,45.2,30.13,NNE,23,0.0,0.0,96,0.00,,---,0.00,16.00,VWS V14.01,2013-09-28 11:50:00,
2013-09-28 07:52:00,46.4,45.3,30.13,NNE,23,0.0,0.0,96,0.00,,---,0.00,16.00,VWS V14.01,2013-09-28 11:52:00,
2013-09-28 07:55:00,46.4,45.3,30.13,NNE,23,0.0,0.0,96,0.00,,---,0.00,18.00,VWS V14.01,2013-09-28 11:55:00,
2013-09-28 07:57:00,46.4,45.3,30.14,NNE,23,0.0,0.0,96,0.00,,---,0.00,21.00,VWS V14.01,2013-09-28 11:57:00,
2013-09-28 08:00:00,46.4,45.3,30.14,NNE,23,0.0,0.0,96,0.00,,---,0.00,32.00,VWS V14.01,2013-09-28 12:00:00,
2013-09-28 08:02:00,46.5,45.4,30.14,NNE,23,0.0,0.0,96,0.00,,---,0.00,25.00,VWS V14.01,2013-09-28 12:02:00,
2013-09-28 08:05:00,46.5,45.4,30.14,NNE,23,0.0,0.0,96,0.00,,---,0.00,21.00,VWS V14.01,2013-09-28 12:05:00,
2013-09-28 08:07:00,46.6,45.5,30.14,NNE,23,0.0,0.0,96,0.00,,---,0.00,23.00,VWS V14.01,2013-09-28 12:07:00,
2013-09-28 08:10:00,46.7,45.6,30.14,NNE,23,0.0,0.0,96,0.00,,---,0.00,25.00,VWS V14.01,2013-09-28 12:10:00,
2013-09-28 08:12:00,46.7,45.6,30.14,NNE,23,0.0,0.0,96,0.00,,---,0.00,25.00,VWS V14.01,2013-09-28 12:12:00,
2013-09-28 08:15:00,46.8,45.7,30.14,NNE,23,0.0,0.0,96,0.00,,---,0.00,25.00,VWS V14.01,2013-09-28 12:15:00,
2013-09-28 08:18:00,46.9,45.8,30.14,NNE,23,0.0,0.0,96,0.00,,---,0.00,25.00,VWS V14.01,2013-09-28 12:18:00,
2013-09-28 08:20:00,47.0,45.9,30.14,NNE,23,0.0,0.0,96,0.00,,---,0.00,25.00,VWS V14.01,2013-09-28 12:20:00,
2013-09-28 08:23:00,47.2,46.1,30.14,NNE,23,0.0,0.0,96,0.00,,---,0.00,42.00,VWS V14.01,2013-09-28 12:23:00,
2013-09-28 08:25:00,47.2,46.1,30.14,NNE,23,0.0,0.0,96,0.00,,---,0.00,42.00,VWS V14.01,2013-09-28 12:25:00,
2013-09-28 08:28:00,47.3,46.2,30.14,NNE,23,0.0,0.0,96,0.00,,---,0.00,113.00,VWS V14.01,2013-09-28 12:28:00,
2013-09-28 08:30:00,47.3,46.2,30.14,NNE,23,0.0,0.0,96,0.00,,---,0.00,118.00,VWS V14.01,2013-09-28 12:30:00,
2013-09-28 08:33:00,47.5,46.4,30.14,NNE,23,0.0,0.0,96,0.00,,---,0.00,127.00,VWS V14.01,2013-09-28 12:33:00,
2013-09-28 08:35:00,47.7,46.9,30.14,NNE,23,0.0,0.0,97,0.00,,---,0.00,135.00,VWS V14.01,2013-09-28 12:35:00,
2013-09-28 08:38:00,47.9,47.1,30.14,NNE,23,0.0,0.0,97,0.00,,---,0.00,142.00,VWS V14.01,2013-09-28 12:38:00,
2013-09-28 08:40:00,48.1,47.3,30.14,NNE,23,0.0,0.0,97,0.00,,---,0.00,149.00,VWS V14.01,2013-09-28 12:40:00,
2013-09-28 08:43:00,48.6,47.8,30.14,NNE,23,0.0,0.0,97,0.00,,---,0.00,160.00,VWS V14.01,2013-09-28 12:43:00,
2013-09-28 08:45:00,48.9,48.1,30.14,NNE,23,0.0,0.0,97,0.00,,---,0.00,165.00,VWS V14.01,2013-09-28 12:45:00,
2013-09-28 08:48:00,49.4,48.6,30.14,NNE,23,0.0,0.0,97,0.00,,---,0.00,176.00,VWS V14.01,2013-09-28 12:48:00,
2013-09-28 08:50:00,49.6,48.8,30.14,NNE,23,0.0,0.0,97,0.00,,---,0.00,181.00,VWS V14.01,2013-09-28 12:50:00,
2013-09-28 08:53:00,50.2,49.4,30.14,NNE,23,0.0,0.0,97,0.00,,---,0.00,193.00,VWS V14.01,2013-09-28 12:53:00,
2013-09-28 08:55:00,50.6,50.1,30.14,NNE,23,0.0,0.0,98,0.00,,---,0.00,199.00,VWS V14.01,2013-09-28 12:55:00,
2013-09-28 08:58:00,51.3,50.8,30.14,NNE,23,0.0,1.0,98,0.00,,---,0.00,209.00,VWS V14.01,2013-09-28 12:58:00,
2013-09-28 09:00:00,51.7,51.2,30.14,NNE,23,0.0,1.0,98,0.00,,---,0.00,214.00,VWS V14.01,2013-09-28 13:00:00,
2013-09-28 09:03:00,52.2,51.7,30.15,NNE,23,0.0,0.0,98,0.00,,---,0.00,223.00,VWS V14.01,2013-09-28 13:03:00,
2013-09-28 09:05:00,52.4,51.8,30.15,NNE,23,0.0,0.0,98,0.00,,---,0.00,229.00,VWS V14.01,2013-09-28 13:05:00,
2013-09-28 09:08:00,53.0,52.5,30.14,NNE,23,0.0,1.0,98,0.00,,---,0.00,236.00,VWS V14.01,2013-09-28 13:08:00,
2013-09-28 09:10:00,53.2,52.7,30.14,NNE,23,0.0,1.0,98,0.00,,---,0.00,243.00,VWS V14.01,2013-09-28 13:10:00,
2013-09-28 09:13:00,53.5,53.0,30.14,NNE,23,0.0,0.0,98,0.00,,---,0.00,250.00,VWS V14.01,2013-09-28 13:13:00,
2013-09-28 09:15:00,53.8,53.2,30.14,NNE,23,0.0,0.0,98,0.00,,---,0.00,253.00,VWS V14.01,2013-09-28 13:15:00,
2013-09-28 09:18:00,54.1,53.5,30.15,NNE,23,0.0,0.0,98,0.00,,---,0.00,262.00,VWS V14.01,2013-09-28 13:18:00,
2013-09-28 09:20:00,54.3,53.8,30.15,NNE,23,0.0,0.0,98,0.00,,---,0.00,267.00,VWS V14.01,2013-09-28 13:20:00,
2013-09-28 09:23:00,54.7,54.2,30.15,NNE,23,0.0,0.0,98,0.00,,---,0.00,276.00,VWS V14.01,2013-09-28 13:23:00,
2013-09-28 09:25:00,54.9,54.3,30.15,NNE,23,0.0,0.0,98,0.00,,---,0.00,279.00,VWS V14.01,2013-09-28 13:25:00,
2013-09-28 09:28:00,55.3,54.8,30.15,NNE,23,0.0,0.0,98,0.00,,---,0.00,288.00,VWS V14.01,2013-09-28 13:28:00,
2013-09-28 09:30:00,55.5,55.0,30.15,NNE,23,0.0,0.0,98,0.00,,---,0.00,294.00,VWS V14.01,2013-09-28 13:30:00,
2013-09-28 09:33:00,55.9,55.3,30.15,NNE,23,0.0,0.0,98,0.00,,---,0.00,301.00,VWS V14.01,2013-09-28 13:33:00,
2013-09-28 09:35:00,56.0,55.5,30.15,NNE,23,0.0,0.0,98,0.00,,---,0.00,308.00,VWS V14.01,2013-09-28 13:35:00,
2013-09-28 09:38:00,56.3,55.8,30.15,NNE,23,1.0,1.0,98,0.00,,---,0.00,315.00,VWS V14.01,2013-09-28 13:38:00,
2013-09-28 09:40:00,56.4,55.8,30.15,NNE,23,0.0,1.0,98,0.00,,---,0.00,320.00,VWS V14.01,2013-09-28 13:40:00,
2013-09-28 09:43:00,56.7,56.1,30.15,NNE,23,0.0,0.0,98,0.00,,---,0.00,329.00,VWS V14.01,2013-09-28 13:43:00,
2013-09-28 09:45:00,56.9,56.3,30.15,NNE,23,0.0,0.0,98,0.00,,---,0.00,334.00,VWS V14.01,2013-09-28 13:45:00,
2013-09-28 09:48:00,57.2,56.6,30.15,NNE,23,0.0,0.0,98,0.00,,---,0.00,339.00,VWS V14.01,2013-09-28 13:48:00,
2013-09-28 09:50:00,57.3,56.7,30.14,NNE,23,0.0,0.0,98,0.00,,---,0.00,345.00,VWS V14.01,2013-09-28 13:50:00,
2013-09-28 09:53:00,57.6,57.0,30.14,NNE,23,0.0,0.0,98,0.00,,---,0.00,353.00,VWS V14.01,2013-09-28 13:53:00,
2013-09-28 09:55:00,57.8,57.2,30.14,NNE,23,0.0,0.0,98,0.00,,---,0.00,359.00,VWS V14.01,2013-09-28 13:55:00,
2013-09-28 09:58:00,58.1,57.5,30.14,NNE,23,0.0,0.0,98,0.00,,---,0.00,371.00,VWS V14.01,2013-09-28 13:58:00,
2013-09-28 10:00:00,58.2,57.6,30.14,NNE,23,0.0,0.0,98,0.00,,---,0.00,378.00,VWS V14.01,2013-09-28 14:00:00,
2013-09-28 10:03:00,58.6,58.0,30.14,NNE,23,0.0,1.0,98,0.00,,---,0.00,390.00,VWS V14.01,2013-09-28 14:03:00,
2013-09-28 10:05:00,58.7,58.1,30.14,NNE,23,0.0,1.0,98,0.00,,---,0.00,399.00,VWS V14.01,2013-09-28 14:05:00,
2013-09-28 10:08:00,59.1,58.5,30.14,NNE,23,0.0,0.0,98,0.00,,---,0.00,415.00,VWS V14.01,2013-09-28 14:08:00,
2013-09-28 10:10:00,59.3,58.7,30.14,NNE,23,0.0,0.0,98,0.00,,---,0.00,424.00,VWS V14.01,2013-09-28 14:10:00,
2013-09-28 10:13:00,59.6,59.0,30.15,NNE,23,0.0,0.0,98,0.00,,---,0.00,441.00,VWS V14.01,2013-09-28 14:13:00,
2013-09-28 10:15:00,59.7,59.1,30.15,NNE,23,0.0,0.0,98,0.00,,---,0.00,446.00,VWS V14.01,2013-09-28 14:15:00,
2013-09-28 10:18:00,59.9,59.3,30.14,NNE,23,0.0,1.0,98,0.00,,---,0.00,459.00,VWS V14.01,2013-09-28 14:18:00,
2013-09-28 10:20:00,60.1,59.2,30.14,NNE,23,0.0,1.0,97,0.00,,---,0.00,466.00,VWS V14.01,2013-09-28 14:20:00,
2013-09-28 10:23:00,60.6,59.8,30.14,NNE,23,0.0,0.0,97,0.00,,---,0.00,476.00,VWS V14.01,2013-09-28 14:23:00,
2013-09-28 10:25:00,60.8,60.0,30.14,NNE,23,0.0,0.0,97,0.00,,---,0.00,480.00,VWS V14.01,2013-09-28 14:25:00,
2013-09-28 10:28:00,61.3,60.4,30.14,NNE,23,0.0,0.0,97,0.00,,---,0.00,490.00,VWS V14.01,2013-09-28 14:28:00,
2013-09-28 10:30:00,61.5,60.9,30.14,NNE,23,0.0,0.0,98,0.00,,---,0.00,494.00,VWS V14.01,2013-09-28 14:30:00,
2013-09-28 10:33:00,61.9,61.0,30.14,NNE,23,0.0,1.0,97,0.00,,---,0.00,501.00,VWS V14.01,2013-09-28 14:33:00,
2013-09-28 10:35:00,62.0,61.1,30.14,NNE,23,0.0,1.0,97,0.00,,---,0.00,506.00,VWS V14.01,2013-09-28 14:35:00,
2013-09-28 10:38:00,62.3,61.2,30.14,NNE,23,0.0,1.0,96,0.00,,---,0.00,512.00,VWS V14.01,2013-09-28 14:38:00,
2013-09-28 10:40:00,62.5,61.3,30.14,NNE,23,0.0,1.0,96,0.00,,---,0.00,519.00,VWS V14.01,2013-09-28 14:40:00,
2013-09-28 10:43:00,62.9,61.5,30.13,NNE,23,0.0,1.0,95,0.00,,---,0.00,526.00,VWS V14.01,2013-09-28 14:43:00,
2013-09-28 10:45:00,63.1,61.3,30.13,NNE,23,0.0,1.0,94,0.00,,---,0.00,531.00,VWS V14.01,2013-09-28 14:45:00,
2013-09-28 10:48:00,63.8,61.7,30.13,NNE,23,1.0,1.0,93,0.00,,---,0.00,538.00,VWS V14.01,2013-09-28 14:48:00,
2013-09-28 10:50:00,64.0,61.3,30.13,NNE,23,0.0,1.0,91,0.00,,---,0.00,541.00,VWS V14.01,2013-09-28 14:50:00,
2013-09-28 10:53:00,64.7,61.4,30.13,NNE,23,0.0,0.0,89,0.00,,---,0.00,552.00,VWS V14.01,2013-09-28 14:53:00,
2013-09-28 10:55:00,64.9,61.3,30.13,NNE,23,0.0,0.0,88,0.00,,---,0.00,554.00,VWS V14.01,2013-09-28 14:55:00,
2013-09-28 10:58:00,65.5,61.2,30.13,NNE,23,0.0,1.0,86,0.00,,---,0.00,563.00,VWS V14.01,2013-09-28 14:58:00,
2013-09-28 11:00:00,65.8,61.2,30.13,NNE,23,1.0,1.0,85,0.00,,---,0.00,566.00,VWS V14.01,2013-09-28 15:00:00,
2013-09-28 11:03:00,66.3,60.7,30.13,NNE,23,0.0,1.0,82,0.00,,---,0.00,575.00,VWS V14.01,2013-09-28 15:03:00,
2013-09-28 11:05:00,66.5,60.2,30.13,NNE,23,0.0,1.0,80,0.00,,---,0.00,577.00,VWS V14.01,2013-09-28 15:05:00,
2013-09-28 11:08:00,66.8,60.1,30.13,NNE,23,0.0,0.0,79,0.00,,---,0.00,587.00,VWS V14.01,2013-09-28 15:08:00,
2013-09-28 11:10:00,67.0,59.9,30.13,NNE,23,0.0,0.0,78,0.00,,---,0.00,589.00,VWS V14.01,2013-09-28 15:10:00,
2013-09-28 11:13:00,67.4,60.3,30.13,NNE,23,0.0,0.0,78,0.00,,---,0.00,596.00,VWS V14.01,2013-09-28 15:13:00,
2013-09-28 11:15:00,67.6,60.1,30.13,NNE,23,0.0,1.0,77,0.00,,---,0.00,599.00,VWS V14.01,2013-09-28 15:15:00,
2013-09-28 11:18:00,68.0,59.8,30.13,NNE,22,1.0,2.0,75,0.00,,---,0.00,606.00,VWS V14.01,2013-09-28 15:18:00,
2013-09-28 11:20:00,68.1,59.9,30.13,NNE,22,2.0,2.0,75,0.00,,---,0.00,610.00,VWS V14.01,2013-09-28 15:20:00,
2013-09-28 11:23:00,68.4,60.2,30.13,NNE,19,0.0,3.0,75,0.00,,---,0.00,617.00,VWS V14.01,2013-09-28 15:23:00,
2013-09-28 11:25:00,68.5,59.9,30.13,North,360,1.0,3.0,74,0.00,,---,0.00,621.00,VWS V14.01,2013-09-28 15:25:00,
2013-09-28 11:28:00,68.8,60.2,30.13,North,360,0.0,2.0,74,0.00,,---,0.00,626.00,VWS V14.01,2013-09-28 15:28:00,
2013-09-28 11:30:00,68.9,60.3,30.13,North,360,0.0,2.0,74,0.00,,---,0.00,629.00,VWS V14.01,2013-09-28 15:30:00,
2013-09-28 11:33:00,69.2,59.8,30.13,North,360,0.0,1.0,72,0.00,,---,0.00,636.00,VWS V14.01,2013-09-28 15:33:00,
2013-09-28 11:35:00,69.3,59.9,30.13,North,360,0.0,1.0,72,0.00,,---,0.00,638.00,VWS V14.01,2013-09-28 15:35:00,
2013-09-28 11:38:00,69.6,59.0,30.13,North,360,0.0,1.0,69,0.00,,---,0.00,645.00,VWS V14.01,2013-09-28 15:38:00,
2013-09-28 11:40:00,69.7,59.5,30.12,North,360,0.0,1.0,70,0.00,,---,0.00,647.00,VWS V14.01,2013-09-28 15:40:00,
2013-09-28 11:43:00,70.1,59.5,30.12,North,360,0.0,1.0,69,0.00,,---,0.00,654.00,VWS V14.01,2013-09-28 15:43:00,
2013-09-28 11:45:00,70.3,59.7,30.12,North,360,0.0,1.0,69,0.00,,---,0.00,656.00,VWS V14.01,2013-09-28 15:45:00,
2013-09-28 11:48:00,70.8,60.9,30.12,North,360,2.0,2.0,71,0.00,,---,0.00,663.00,VWS V14.01,2013-09-28 15:48:00,
2013-09-28 11:50:00,70.9,60.6,30.12,North,360,1.0,2.0,70,0.00,,---,0.00,664.00,VWS V14.01,2013-09-28 15:50:00,
2013-09-28 11:53:00,71.2,60.5,30.12,North,355,2.0,3.0,69,0.00,,---,0.00,670.00,VWS V14.01,2013-09-28 15:53:00,
2013-09-28 11:55:00,71.3,60.2,30.12,North,355,1.0,3.0,68,0.00,,---,0.00,670.00,VWS V14.01,2013-09-28 15:55:00,
2013-09-28 11:58:00,71.4,59.9,30.12,North,355,0.0,2.0,67,0.00,,---,0.00,675.00,VWS V14.01,2013-09-28 15:58:00,
2013-09-28 12:00:00,71.5,60.4,30.12,North,355,0.0,2.0,68,0.00,,---,0.00,679.00,VWS V14.01,2013-09-28 16:00:00,
2013-09-28 12:03:00,71.7,59.3,30.12,WSW,255,1.0,4.0,65,0.00,,---,0.00,684.00,VWS V14.01,2013-09-28 16:03:00,
2013-09-28 12:05:00,71.7,59.8,30.12,WSW,255,1.0,4.0,66,0.00,,---,0.00,687.00,VWS V14.01,2013-09-28 16:05:00,
2013-09-28 12:08:00,71.8,59.4,30.12,SW,222,2.0,5.0,65,0.00,,---,0.00,693.00,VWS V14.01,2013-09-28 16:08:00,
2013-09-28 12:10:00,71.9,59.5,30.12,SW,221,0.0,5.0,65,0.00,,---,0.00,694.00,VWS V14.01,2013-09-28 16:10:00,
2013-09-28 12:13:00,72.0,60.0,30.12,SW,223,2.0,4.0,66,0.00,,---,0.00,700.00,VWS V14.01,2013-09-28 16:13:00,
2013-09-28 12:15:00,72.1,59.3,30.12,SW,224,2.0,4.0,64,0.00,,---,0.00,700.00,VWS V14.01,2013-09-28 16:15:00,
2013-09-28 12:18:00,72.1,58.4,30.11,SW,219,3.0,4.0,62,0.00,,---,0.00,707.00,VWS V14.01,2013-09-28 16:18:00,
2013-09-28 12:20:00,72.1,58.8,30.11,SW,216,0.0,5.0,63,0.00,,---,0.00,708.00,VWS V14.01,2013-09-28 16:20:00,
2013-09-28 12:23:00,72.2,58.0,30.12,SW,216,0.0,3.0,61,0.00,,---,0.00,714.00,VWS V14.01,2013-09-28 16:23:00,
2013-09-28 12:25:00,72.2,58.0,30.12,SW,216,3.0,3.0,61,0.00,,---,0.00,715.00,VWS V14.01,2013-09-28 16:25:00,
2013-09-28 12:28:00,72.4,57.8,30.11,SW,216,0.0,3.0,60,0.00,,---,0.00,719.00,VWS V14.01,2013-09-28 16:28:00,
2013-09-28 12:30:00,72.5,57.8,30.11,SW,216,2.0,3.0,60,0.00,,---,0.00,719.00,VWS V14.01,2013-09-28 16:30:00,
2013-09-28 12:33:00,73.0,59.7,30.11,SW,216,1.0,4.0,63,0.00,,---,0.00,726.00,VWS V14.01,2013-09-28 16:33:00,
2013-09-28 12:35:00,73.1,58.9,30.11,SW,216,3.0,4.0,61,0.00,,---,0.00,728.00,VWS V14.01,2013-09-28 16:35:00,
2013-09-28 12:38:00,73.2,58.0,30.11,SW,232,2.0,5.0,59,0.00,,---,0.00,733.00,VWS V14.01,2013-09-28 16:38:00,
2013-09-28 12:40:00,73.2,57.5,30.11,SW,221,1.0,5.0,58,0.00,,---,0.00,735.00,VWS V14.01,2013-09-28 16:40:00,
2013-09-28 12:43:00,73.2,56.1,30.11,SW,229,4.0,6.0,55,0.00,,---,0.00,742.00,VWS V14.01,2013-09-28 16:43:00,
2013-09-28 12:45:00,73.3,57.2,30.11,SW,223,2.0,6.0,57,0.00,,---,0.00,742.00,VWS V14.01,2013-09-28 16:45:00,
2013-09-28 12:48:00,73.2,57.1,30.11,SW,232,1.0,5.0,57,0.00,,---,0.00,745.00,VWS V14.01,2013-09-28 16:48:00,
2013-09-28 12:50:00,73.2,56.6,30.11,SW,232,0.0,5.0,56,0.00,,---,0.00,745.00,VWS V14.01,2013-09-28 16:50:00,
2013-09-28 12:53:00,73.2,56.1,30.11,SSE,154,3.0,5.0,55,0.00,,---,0.00,744.00,VWS V14.01,2013-09-28 16:53:00,
2013-09-28 12:55:00,73.3,55.7,30.11,SSE,153,2.0,5.0,54,0.00,,---,0.00,738.00,VWS V14.01,2013-09-28 16:55:00,
2013-09-28 12:58:00,73.3,55.2,30.11,SSE,153,0.0,2.0,53,0.00,,---,0.00,735.00,VWS V14.01,2013-09-28 16:58:00,
2013-09-28 13:00:00,73.4,55.8,30.11,ESE,114,2.0,3.0,54,0.00,,---,0.00,740.00,VWS V14.01,2013-09-28 17:00:00,
2013-09-28 13:03:00,73.5,55.9,30.11,ENE,65,0.0,3.0,54,0.00,,---,0.00,738.00,VWS V14.01,2013-09-28 17:03:00,
2013-09-28 13:05:00,73.6,56.0,30.11,ENE,65,2.0,3.0,54,0.00,,---,0.00,740.00,VWS V14.01,2013-09-28 17:05:00,
2013-09-28 13:08:00,73.9,57.2,30.11,NW,312,0.0,6.0,56,0.00,,---,0.00,738.00,VWS V14.01,2013-09-28 17:08:00,
2013-09-28 13:10:00,74.0,56.8,30.11,NW,311,0.0,6.0,55,0.00,,---,0.00,740.00,VWS V14.01,2013-09-28 17:10:00,
2013-09-28 13:13:00,74.3,56.6,30.11,North,355,0.0,4.0,54,0.00,,---,0.00,737.00,VWS V14.01,2013-09-28 17:13:00,
2013-09-28 13:15:00,74.3,56.6,30.11,North,9,2.0,4.0,54,0.00,,---,0.00,742.00,VWS V14.01,2013-09-28 17:15:00,
2013-09-28 13:18:00,74.5,56.3,30.10,North,360,0.0,3.0,53,0.00,,---,0.00,740.00,VWS V14.01,2013-09-28 17:18:00,
2013-09-28 13:20:00,74.6,56.9,30.10,North,360,0.0,3.0,54,0.00,,---,0.00,745.00,VWS V14.01,2013-09-28 17:20:00,
2013-09-28 13:24:00,74.9,57.2,30.10,North,360,0.0,1.0,54,0.00,,---,0.00,754.00,VWS V14.01,2013-09-28 17:24:00,
2013-09-28 13:25:00,74.9,56.6,30.10,NNE,12,0.0,2.0,53,0.00,,---,0.00,751.00,VWS V14.01,2013-09-28 17:25:00,
2013-09-28 13:29:00,75.1,57.8,30.10,NNE,13,1.0,3.0,55,0.00,,---,0.00,751.00,VWS V14.01,2013-09-28 17:29:00,
2013-09-28 13:30:00,75.2,57.9,30.10,NNE,13,0.0,3.0,55,0.00,,---,0.00,749.00,VWS V14.01,2013-09-28 17:30:00,
2013-09-28 13:34:00,75.5,58.7,30.09,NNE,13,0.0,0.0,56,0.00,,---,0.00,737.00,VWS V14.01,2013-09-28 17:34:00,
2013-09-28 13:35:00,75.6,59.3,30.09,NNE,13,0.0,0.0,57,0.00,,---,0.00,742.00,VWS V14.01,2013-09-28 17:35:00,
2013-09-28 13:39:00,75.9,58.6,30.09,South,181,3.0,11.0,55,0.00,,---,0.00,745.00,VWS V14.01,2013-09-28 17:39:00,
2013-09-28 13:40:00,76.0,58.2,30.09,South,180,2.0,11.0,54,0.00,,---,0.00,747.00,VWS V14.01,2013-09-28 17:40:00,
2013-09-28 13:44:00,76.1,57.2,30.09,South,171,1.0,4.0,52,0.00,,---,0.00,738.00,VWS V14.01,2013-09-28 17:44:00,
2013-09-28 13:45:00,76.1,58.3,30.09,SSE,159,2.0,4.0,54,0.00,,---,0.00,740.00,VWS V14.01,2013-09-28 17:45:00,
2013-09-28 13:49:00,76.0,57.7,30.09,SSE,163,0.0,3.0,53,0.00,,---,0.00,744.00,VWS V14.01,2013-09-28 17:49:00,
2013-09-28 13:50:00,76.1,57.8,30.09,SSE,162,0.0,3.0,53,0.00,,---,0.00,744.00,VWS V14.01,2013-09-28 17:50:00,
2013-09-28 13:54:00,76.2,58.9,30.08,SSE,153,0.0,2.0,55,0.00,,---,0.00,742.00,VWS V14.01,2013-09-28 17:54:00,
2013-09-28 13:55:00,76.2,58.9,30.08,SSE,153,0.0,2.0,55,0.00,,---,0.00,742.00,VWS V14.01,2013-09-28 17:55:00,
2013-09-28 13:59:00,76.4,58.5,30.08,West,273,4.0,6.0,54,0.00,,---,0.00,738.00,VWS V14.01,2013-09-28 17:59:00,
2013-09-28 14:00:00,76.4,58.5,30.08,West,273,4.0,6.0,54,0.00,,---,0.00,738.00,VWS V14.01,2013-09-28 18:00:00,
2013-09-28 14:04:00,76.1,57.8,30.08,NW,313,4.0,5.0,53,0.00,,---,0.00,740.00,VWS V14.01,2013-09-28 18:04:00,
2013-09-28 14:05:00,76.1,57.8,30.08,NW,309,2.0,5.0,53,0.00,,---,0.00,740.00,VWS V14.01,2013-09-28 18:05:00,
2013-09-28 14:09:00,76.0,57.7,30.08,WNW,294,3.0,8.0,53,0.00,,---,0.00,747.00,VWS V14.01,2013-09-28 18:09:00,
2013-09-28 14:10:00,75.9,57.6,30.08,WNW,297,3.0,8.0,53,0.00,,---,0.00,751.00,VWS V14.01,2013-09-28 18:10:00,
2013-09-28 14:14:00,75.7,57.4,30.07,NW,323,0.0,4.0,53,0.00,,---,0.00,758.00,VWS V14.01,2013-09-28 18:14:00,
2013-09-28 14:15:00,75.7,57.4,30.07,NW,323,0.0,4.0,53,0.00,,---,0.00,751.00,VWS V14.01,2013-09-28 18:15:00,
2013-09-28 14:19:00,75.9,57.6,30.07,SW,229,0.0,5.0,53,0.00,,---,0.00,744.00,VWS V14.01,2013-09-28 18:19:00,
2013-09-28 14:20:00,76.0,57.7,30.07,SW,229,0.0,5.0,53,0.00,,---,0.00,744.00,VWS V14.01,2013-09-28 18:20:00,
2013-09-28 14:24:00,76.0,57.7,30.07,West,279,1.0,3.0,53,0.00,,---,0.00,738.00,VWS V14.01,2013-09-28 18:24:00,
2013-09-28 14:25:00,76.0,57.7,30.07,WNW,290,3.0,3.0,53,0.00,,---,0.00,738.00,VWS V14.01,2013-09-28 18:25:00,
2013-09-28 14:29:00,76.0,57.1,30.06,ENE,74,3.0,4.0,52,0.00,,---,0.00,710.00,VWS V14.01,2013-09-28 18:29:00,
2013-09-28 14:30:00,75.9,57.0,30.06,ENE,74,2.0,4.0,52,0.00,,---,0.00,710.00,VWS V14.01,2013-09-28 18:30:00,
2013-09-28 14:34:00,75.5,56.7,30.06,SE,136,0.0,6.0,52,0.00,,---,0.00,708.00,VWS V14.01,2013-09-28 18:34:00,
2013-09-28 14:35:00,75.5,56.7,30.06,SE,136,0.0,6.0,52,0.00,,---,0.00,708.00,VWS V14.01,2013-09-28 18:35:00,
2013-09-28 14:39:00,75.6,56.8,30.06,NNE,19,4.0,4.0,52,0.00,,---,0.00,701.00,VWS V14.01,2013-09-28 18:39:00,
2013-09-28 14:40:00,75.6,56.8,30.06,NNE,18,2.0,4.0,52,0.00,,---,0.00,701.00,VWS V14.01,2013-09-28 18:40:00,
2013-09-28 14:44:00,76.1,57.2,30.06,NNE,17,0.0,2.0,52,0.00,,---,0.00,694.00,VWS V14.01,2013-09-28 18:44:00,
2013-09-28 14:45:00,76.1,57.2,30.06,NNE,17,0.0,2.0,52,0.00,,---,0.00,694.00,VWS V14.01,2013-09-28 18:45:00,
2013-09-28 14:49:00,76.5,57.6,30.06,NNE,28,2.0,8.0,52,0.00,,---,0.00,693.00,VWS V14.01,2013-09-28 18:49:00,
2013-09-28 14:50:00,76.5,57.6,30.06,NNE,31,3.0,8.0,52,0.00,,---,0.00,693.00,VWS V14.01,2013-09-28 18:50:00,
2013-09-28 14:54:00,76.6,58.7,30.06,South,184,3.0,7.0,54,0.00,,---,0.00,682.00,VWS V14.01,2013-09-28 18:54:00,
2013-09-28 14:55:00,76.6,58.7,30.06,South,184,3.0,7.0,54,0.00,,---,0.00,682.00,VWS V14.01,2013-09-28 18:55:00,
2013-09-28 14:59:00,76.8,58.4,30.06,SSW,207,0.0,4.0,53,0.00,,---,0.00,679.00,VWS V14.01,2013-09-28 18:59:00,
2013-09-28 15:00:00,76.8,58.4,30.06,SSW,205,2.0,4.0,53,0.00,,---,0.00,679.00,VWS V14.01,2013-09-28 19:00:00,
2013-09-28 15:04:00,77.1,57.6,30.06,SSW,196,0.0,3.0,51,0.00,,---,0.00,666.00,VWS V14.01,2013-09-28 19:04:00,
2013-09-28 15:05:00,77.1,57.6,30.06,SSW,196,0.0,3.0,51,0.00,,---,0.00,666.00,VWS V14.01,2013-09-28 19:05:00,
2013-09-28 15:09:00,77.5,58.0,30.05,SSW,197,0.0,2.0,51,0.00,,---,0.00,649.00,VWS V14.01,2013-09-28 19:09:00,
2013-09-28 15:10:00,77.5,57.4,30.05,SSW,197,0.0,2.0,50,0.00,,---,0.00,649.00,VWS V14.01,2013-09-28 19:10:00,
2013-09-28 15:14:00,77.7,58.2,30.05,SSE,153,2.0,6.0,51,0.00,,---,0.00,656.00,VWS V14.01,2013-09-28 19:14:00,
2013-09-28 15:15:00,77.7,58.2,30.05,SSE,153,2.0,6.0,51,0.00,,---,0.00,656.00,VWS V14.01,2013-09-28 19:15:00,
2013-09-28 15:19:00,77.4,56.2,30.05,ESE,103,1.0,6.0,48,0.00,,---,0.00,654.00,VWS V14.01,2013-09-28 19:19:00,
2013-09-28 15:20:00,77.4,56.2,30.05,ESE,103,1.0,6.0,48,0.00,,---,0.00,654.00,VWS V14.01,2013-09-28 19:20:00,
2013-09-28 15:24:00,77.2,56.0,30.05,East,101,1.0,3.0,48,0.00,,---,0.00,638.00,VWS V14.01,2013-09-28 19:24:00,
2013-09-28 15:25:00,77.2,56.0,30.05,East,101,1.0,3.0,48,0.00,,---,0.00,638.00,VWS V14.01,2013-09-28 19:25:00,
2013-09-28 15:29:00,77.1,57.6,30.04,ESE,123,4.0,4.0,51,0.00,,---,0.00,626.00,VWS V14.01,2013-09-28 19:29:00,
2013-09-28 15:30:00,77.1,57.6,30.04,ESE,123,4.0,4.0,51,0.00,,---,0.00,626.00,VWS V14.01,2013-09-28 19:30:00,
2013-09-28 15:34:00,77.1,57.6,30.04,ESE,122,0.0,7.0,51,0.00,,---,0.00,635.00,VWS V14.01,2013-09-28 19:34:00,
2013-09-28 15:35:00,77.1,57.6,30.04,ESE,122,0.0,7.0,51,0.00,,---,0.00,635.00,VWS V14.01,2013-09-28 19:35:00,
2013-09-28 15:39:00,77.1,57.0,30.04,SE,140,2.0,4.0,50,0.00,,---,0.00,550.00,VWS V14.01,2013-09-28 19:39:00,
2013-09-28 15:40:00,77.1,57.0,30.04,SE,140,2.0,4.0,50,0.00,,---,0.00,550.00,VWS V14.01,2013-09-28 19:40:00,
2013-09-28 15:45:00,77.1,56.5,30.04,SSE,164,0.0,0.0,49,0.00,,---,0.00,606.00,VWS V14.01,2013-09-28 19:45:00,
2013-09-28 15:50:00,77.0,57.0,30.04,SSE,166,3.0,3.0,50,0.00,,---,0.00,598.00,VWS V14.01,2013-09-28 19:50:00,
2013-09-28 15:55:00,77.1,57.0,30.04,South,182,2.0,3.0,50,0.00,,---,0.00,594.00,VWS V14.01,2013-09-28 19:55:00,
2013-09-28 16:00:00,77.4,56.8,30.04,South,180,0.0,7.0,49,0.00,,---,0.00,540.00,VWS V14.01,2013-09-28 20:00:00,
2013-09-28 16:05:00,77.6,57.5,30.04,South,180,0.0,1.0,50,0.00,,---,0.00,538.00,VWS V14.01,2013-09-28 20:05:00,
2013-09-28 16:10:00,77.6,56.4,30.04,East,95,2.0,2.0,48,0.00,,---,0.00,538.00,VWS V14.01,2013-09-28 20:10:00,
2013-09-28 16:15:00,77.4,57.3,30.04,SE,134,2.0,6.0,50,0.00,,---,0.00,496.00,VWS V14.01,2013-09-28 20:15:00,
2013-09-28 16:20:00,77.4,58.4,30.04,SE,144,1.0,1.0,52,0.00,,---,0.00,503.00,VWS V14.01,2013-09-28 20:20:00,
2013-09-28 16:25:00,77.1,57.0,30.04,ESE,121,0.0,1.0,50,0.00,,---,0.00,439.00,VWS V14.01,2013-09-28 20:25:00,
2013-09-28 16:30:00,77.0,57.5,30.03,East,80,0.0,2.0,51,0.00,,---,0.00,497.00,VWS V14.01,2013-09-28 20:30:00,
2013-09-28 16:35:00,76.9,58.0,30.03,East,87,2.0,2.0,52,0.00,,---,0.00,517.00,VWS V14.01,2013-09-28 20:35:00,
2013-09-28 16:40:00,77.1,58.7,30.03,SSE,155,4.0,4.0,53,0.00,,---,0.00,522.00,VWS V14.01,2013-09-28 20:40:00,
2013-09-28 16:45:00,77.3,58.3,30.03,SW,234,3.0,4.0,52,0.00,,---,0.00,483.00,VWS V14.01,2013-09-28 20:45:00,
2013-09-28 16:50:00,77.4,57.3,30.03,ESE,110,0.0,1.0,50,0.00,,---,0.00,413.00,VWS V14.01,2013-09-28 20:50:00,
2013-09-28 16:55:00,77.4,56.8,30.03,ESE,109,0.0,0.0,49,0.00,,---,0.00,373.00,VWS V14.01,2013-09-28 20:55:00,
2013-09-28 17:00:00,77.4,57.9,30.03,East,90,2.0,3.0,51,0.00,,---,0.00,371.00,VWS V14.01,2013-09-28 21:00:00,
2013-09-28 17:05:00,76.8,56.8,30.03,East,80,3.0,3.0,50,0.00,,---,0.00,343.00,VWS V14.01,2013-09-28 21:05:00,
2013-09-28 17:10:00,76.4,57.5,30.03,ESE,111,2.0,3.0,52,0.00,,---,0.00,350.00,VWS V14.01,2013-09-28 21:10:00,
2013-09-28 17:15:00,76.3,57.9,30.03,East,98,0.0,3.0,53,0.00,,---,0.00,366.00,VWS V14.01,2013-09-28 21:15:00,
2013-09-28 17:20:00,76.3,57.9,30.03,SE,140,4.0,4.0,53,0.00,,---,0.00,338.00,VWS V14.01,2013-09-28 21:20:00,
2013-09-28 17:25:00,76.2,57.8,30.03,ESE,121,3.0,3.0,53,0.00,,---,0.00,329.00,VWS V14.01,2013-09-28 21:25:00,
2013-09-28 17:30:00,76.3,58.5,30.03,SSE,158,0.0,1.0,54,0.00,,---,0.00,304.00,VWS V14.01,2013-09-28 21:30:00,
2013-09-28 17:35:00,76.4,58.5,30.03,ESE,118,2.0,2.0,54,0.00,,---,0.00,290.00,VWS V14.01,2013-09-28 21:35:00,
2013-09-28 17:40:00,76.4,58.5,30.03,ESE,112,0.0,0.0,54,0.00,,---,0.00,250.00,VWS V14.01,2013-09-28 21:40:00,
2013-09-28 17:45:00,76.2,57.8,30.03,ESE,111,0.0,0.0,53,0.00,,---,0.00,246.00,VWS V14.01,2013-09-28 21:45:00,
2013-09-28 17:50:00,76.1,58.3,30.02,SSE,159,2.0,4.0,54,0.00,,---,0.00,292.00,VWS V14.01,2013-09-28 21:50:00,
2013-09-28 17:55:00,75.9,57.6,30.03,East,100,0.0,2.0,53,0.00,,---,0.00,264.00,VWS V14.01,2013-09-28 21:55:00,
2013-09-28 18:00:00,75.8,58.0,30.03,ESE,113,2.0,2.0,54,0.00,,---,0.00,241.00,VWS V14.01,2013-09-28 22:00:00,
2013-09-28 18:05:00,75.7,57.9,30.03,ESE,107,0.0,0.0,54,0.00,,---,0.00,123.00,VWS V14.01,2013-09-28 22:05:00,
2013-09-28 18:10:00,75.5,57.7,30.03,ESE,107,0.0,0.0,54,0.00,,---,0.00,176.00,VWS V14.01,2013-09-28 22:10:00,
2013-09-28 18:15:00,75.5,58.2,30.03,ESE,107,0.0,0.0,55,0.00,,---,0.00,169.00,VWS V14.01,2013-09-28 22:15:00,
2013-09-28 18:20:00,75.5,58.2,30.03,ESE,107,0.0,0.0,55,0.00,,---,0.00,144.00,VWS V14.01,2013-09-28 22:20:00,
2013-09-28 18:25:00,75.4,58.1,30.03,ESE,109,1.0,3.0,55,0.00,,---,0.00,130.00,VWS V14.01,2013-09-28 22:25:00,
2013-09-28 18:30:00,75.3,58.0,30.03,SSE,154,0.0,1.0,55,0.00,,---,0.00,118.00,VWS V14.01,2013-09-28 22:30:00,
2013-09-28 18:35:00,75.1,57.8,30.03,SSE,154,0.0,2.0,55,0.00,,---,0.00,95.00,VWS V14.01,2013-09-28 22:35:00,
2013-09-28 18:40:00,74.9,58.2,30.03,SSE,154,0.0,0.0,56,0.00,,---,0.00,56.00,VWS V14.01,2013-09-28 22:40:00,
2013-09-28 18:45:00,74.8,58.6,30.03,SSE,154,0.0,0.0,57,0.00,,---,0.00,42.00,VWS V14.01,2013-09-28 22:45:00,
2013-09-28 18:50:00,74.5,58.8,30.03,SSE,154,0.0,0.0,58,0.00,,---,0.00,32.00,VWS V14.01,2013-09-28 22:50:00,
2013-09-28 18:55:00,74.1,58.4,30.03,SSE,154,0.0,0.0,58,0.00,,---,0.00,26.00,VWS V14.01,2013-09-28 22:55:00,
2013-09-28 19:00:00,73.6,58.4,30.03,SSE,154,0.0,1.0,59,0.00,,---,0.00,23.00,VWS V14.01,2013-09-28 23:00:00,
2013-09-28 19:05:00,73.0,58.8,30.03,SSE,154,0.0,0.0,61,0.00,,---,0.00,18.00,VWS V14.01,2013-09-28 23:05:00,
2013-09-28 19:10:00,72.4,58.2,30.03,SSE,154,0.0,0.0,61,0.00,,---,0.00,11.00,VWS V14.01,2013-09-28 23:10:00,
2013-09-28 19:15:00,71.8,58.1,30.03,SSE,154,0.0,0.0,62,0.00,,---,0.00,0.00,VWS V14.01,2013-09-28 23:15:00,
2013-09-28 19:20:00,71.1,57.9,30.03,SSE,154,0.0,0.0,63,0.00,,---,0.00,0.00,VWS V14.01,2013-09-28 23:20:00,
2013-09-28 19:25:00,70.5,57.8,30.03,SSE,154,0.0,1.0,64,0.00,,---,0.00,0.00,VWS V14.01,2013-09-28 23:25:00,
2013-09-28 19:30:00,69.9,57.6,30.03,SSE,154,0.0,0.0,65,0.00,,---,0.00,0.00,VWS V14.01,2013-09-28 23:30:00,
2013-09-28 19:35:00,69.2,57.0,30.03,SSE,154,0.0,0.0,65,0.00,,---,0.00,0.00,VWS V14.01,2013-09-28 23:35:00,
2013-09-28 19:40:00,68.8,57.0,30.03,SSE,154,0.0,0.0,66,0.00,,---,0.00,0.00,VWS V14.01,2013-09-28 23:40:00,
2013-09-28 19:45:00,68.3,56.5,30.03,SSE,154,0.0,0.0,66,0.00,,---,0.00,0.00,VWS V14.01,2013-09-28 23:45:00,
2013-09-28 19:50:00,67.9,56.5,30.03,SSE,154,2.0,4.0,67,0.00,,---,0.00,0.00,VWS V14.01,2013-09-28 23:50:00,
2013-09-28 19:55:00,67.6,56.7,30.03,SSE,154,0.0,0.0,68,0.00,,---,0.00,0.00,VWS V14.01,2013-09-28 23:55:00,
2013-09-28 20:00:00,67.4,56.5,30.03,SSE,154,0.0,2.0,68,0.00,,---,0.00,0.00,VWS V14.01,2013-09-29 00:00:00,
2013-09-28 20:01:00,67.4,56.5,30.02,SSE,154,0.0,0.0,68,0.00,,---,0.00,0.00,VWS V14.01,2013-09-29 00:01:00,
2013-09-28 20:05:00,67.2,56.7,30.02,SSE,154,0.0,1.0,69,0.00,,---,0.00,0.00,VWS V14.01,2013-09-29 00:05:00,
2013-09-28 20:06:00,67.1,56.6,30.03,SSE,154,0.0,0.0,69,0.00,,---,0.00,0.00,VWS V14.01,2013-09-29 00:06:00,
2013-09-28 20:10:00,67.0,56.5,30.03,SSE,148,2.0,5.0,69,0.00,,---,0.00,0.00,VWS V14.01,2013-09-29 00:10:00,
2013-09-28 20:11:00,67.0,56.1,30.02,SSE,148,0.0,2.0,68,0.00,,---,0.00,0.00,VWS V14.01,2013-09-29 00:11:00,
2013-09-28 20:15:00,66.9,56.4,30.02,SSE,148,0.0,2.0,69,0.00,,---,0.00,0.00,VWS V14.01,2013-09-29 00:15:00,
2013-09-28 20:16:00,66.9,56.4,30.03,SSE,148,0.0,1.0,69,0.00,,---,0.00,0.00,VWS V14.01,2013-09-29 00:16:00,
2013-09-28 20:20:00,66.9,56.4,30.03,SSE,148,0.0,1.0,69,0.00,,---,0.00,0.00,VWS V14.01,2013-09-29 00:20:00,
2013-09-28 20:21:00,66.8,56.3,30.03,SSE,148,0.0,0.0,69,0.00,,---,0.00,0.00,VWS V14.01,2013-09-29 00:21:00,
2013-09-28 20:25:00,66.8,56.3,30.03,SSE,148,0.0,1.0,69,0.00,,---,0.00,0.00,VWS V14.01,2013-09-29 00:25:00,
2013-09-28 20:26:00,66.8,56.3,30.03,SSE,148,0.0,0.0,69,0.00,,---,0.00,0.00,VWS V14.01,2013-09-29 00:26:00,
2013-09-28 20:30:00,66.6,56.1,30.03,SSE,148,0.0,1.0,69,0.00,,---,0.00,0.00,VWS V14.01,2013-09-29 00:30:00,
2013-09-28 20:31:00,66.6,56.1,30.03,SSE,148,0.0,1.0,69,0.00,,---,0.00,0.00,VWS V14.01,2013-09-29 00:31:00,
2013-09-28 20:35:00,66.5,56.4,30.03,SSE,148,0.0,1.0,70,0.00,,---,0.00,0.00,VWS V14.01,2013-09-29 00:35:00,
2013-09-28 20:36:00,66.4,56.3,30.03,SSE,148,0.0,2.0,70,0.00,,---,0.00,0.00,VWS V14.01,2013-09-29 00:36:00,
2013-09-28 20:40:00,66.2,56.1,30.03,SSE,148,0.0,2.0,70,0.00,,---,0.00,0.00,VWS V14.01,2013-09-29 00:40:00,
2013-09-28 20:41:00,66.2,56.1,30.03,SSE,148,0.0,0.0,70,0.00,,---,0.00,0.00,VWS V14.01,2013-09-29 00:41:00,
2013-09-28 20:45:00,66.0,56.3,30.03,SSE,148,0.0,1.0,71,0.00,,---,0.00,0.00,VWS V14.01,2013-09-29 00:45:00,
2013-09-28 20:46:00,65.9,56.2,30.03,SSE,148,0.0,0.0,71,0.00,,---,0.00,0.00,VWS V14.01,2013-09-29 00:46:00,
2013-09-28 20:50:00,65.7,56.4,30.03,SSE,148,0.0,1.0,72,0.00,,---,0.00,0.00,VWS V14.01,2013-09-29 00:50:00,
2013-09-28 20:51:00,65.6,56.3,30.03,SSE,148,0.0,0.0,72,0.00,,---,0.00,0.00,VWS V14.01,2013-09-29 00:51:00,
2013-09-28 20:55:00,65.4,56.2,30.03,SSE,148,0.0,0.0,72,0.00,,---,0.00,0.00,VWS V14.01,2013-09-29 00:55:00,
2013-09-28 20:56:00,65.3,56.4,30.03,SSE,148,0.0,0.0,73,0.00,,---,0.00,0.00,VWS V14.01,2013-09-29 00:56:00,
2013-09-28 21:00:00,65.0,56.2,30.03,SSE,148,0.0,0.0,73,0.00,,---,0.00,0.00,VWS V14.01,2013-09-29 01:00:00,
2013-09-28 21:01:00,64.9,56.0,30.02,SSE,148,0.0,0.0,73,0.00,,---,0.00,0.00,VWS V14.01,2013-09-29 01:01:00,
2013-09-28 21:05:00,64.5,56.4,30.02,SSE,148,0.0,0.0,75,0.00,,---,0.00,0.00,VWS V14.01,2013-09-29 01:05:00,
2013-09-28 21:06:00,64.3,55.8,30.02,SSE,148,0.0,0.0,74,0.00,,---,0.00,0.00,VWS V14.01,2013-09-29 01:06:00,
2013-09-28 21:10:00,63.9,55.5,30.03,SSE,148,0.0,0.0,74,0.00,,---,0.00,0.00,VWS V14.01,2013-09-29 01:10:00,
2013-09-28 21:11:00,63.8,55.7,30.03,SSE,148,0.0,0.0,75,0.00,,---,0.00,0.00,VWS V14.01,2013-09-29 01:11:00,
2013-09-28 21:15:00,63.4,55.7,30.03,SSE,148,0.0,0.0,76,0.00,,---,0.00,0.00,VWS V14.01,2013-09-29 01:15:00,
2013-09-28 21:16:00,63.2,55.9,30.03,SSE,148,0.0,0.0,77,0.00,,---,0.00,0.00,VWS V14.01,2013-09-29 01:16:00,
2013-09-28 21:20:00,62.8,55.5,30.03,SSE,148,0.0,0.0,77,0.00,,---,0.00,0.00,VWS V14.01,2013-09-29 01:20:00,
2013-09-28 21:21:00,62.6,55.3,30.03,SSE,148,0.0,0.0,77,0.00,,---,0.00,0.00,VWS V14.01,2013-09-29 01:21:00,
2013-09-28 21:25:00,62.2,55.3,30.03,SSE,148,0.0,1.0,78,0.00,,---,0.00,0.00,VWS V14.01,2013-09-29 01:25:00,
2013-09-28 21:26:00,62.0,55.4,30.03,SSE,148,0.0,1.0,79,0.00,,---,0.00,0.00,VWS V14.01,2013-09-29 01:26:00,
2013-09-28 21:30:00,61.6,55.7,30.03,SSE,148,0.0,1.0,81,0.00,,---,0.00,0.00,VWS V14.01,2013-09-29 01:30:00,
2013-09-28 21:31:00,61.4,55.5,30.03,SSE,148,0.0,0.0,81,0.00,,---,0.00,0.00,VWS V14.01,2013-09-29 01:31:00,
2013-09-28 21:35:00,61.1,55.6,30.03,SSE,148,0.0,0.0,82,0.00,,---,0.00,0.00,VWS V14.01,2013-09-29 01:35:00,
2013-09-28 21:36:00,61.0,55.5,30.03,SSE,148,0.0,0.0,82,0.00,,---,0.00,0.00,VWS V14.01,2013-09-29 01:36:00,
2013-09-28 21:40:00,60.7,54.8,30.03,SSE,148,0.0,0.0,81,0.00,,---,0.00,0.00,VWS V14.01,2013-09-29 01:40:00,
2013-09-28 21:41:00,60.5,54.7,30.03,SSE,148,0.0,0.0,81,0.00,,---,0.00,0.00,VWS V14.01,2013-09-29 01:41:00,
2013-09-28 21:45:00,60.2,54.4,30.03,SSE,148,0.0,0.0,81,0.00,,---,0.00,0.00,VWS V14.01,2013-09-29 01:45:00,
2013-09-28 21:46:00,60.1,54.3,30.03,SSE,148,0.0,0.0,81,0.00,,---,0.00,0.00,VWS V14.01,2013-09-29 01:46:00,
2013-09-28 21:50:00,59.8,54.0,30.03,SSE,148,0.0,0.0,81,0.00,,---,0.00,0.00,VWS V14.01,2013-09-29 01:50:00,
2013-09-28 21:51:00,59.7,53.5,30.03,SSE,148,0.0,0.0,80,0.00,,---,0.00,0.00,VWS V14.01,2013-09-29 01:51:00,
2013-09-28 21:55:00,59.4,53.6,30.03,SSE,148,0.0,0.0,81,0.00,,---,0.00,0.00,VWS V14.01,2013-09-29 01:55:00,
2013-09-28 21:56:00,59.3,53.5,30.03,SSE,148,0.0,0.0,81,0.00,,---,0.00,0.00,VWS V14.01,2013-09-29 01:56:00,
2013-09-28 22:00:00,59.0,53.2,30.03,SSE,148,0.0,0.0,81,0.00,,---,0.00,0.00,VWS V14.01,2013-09-29 02:00:00,
2013-09-28 22:01:00,58.9,53.4,30.03,SSE,148,0.0,0.0,82,0.00,,---,0.00,0.00,VWS V14.01,2013-09-29 02:01:00,
2013-09-28 22:05:00,58.7,53.6,30.03,SSE,148,0.0,0.0,83,0.00,,---,0.00,0.00,VWS V14.01,2013-09-29 02:05:00,
2013-09-28 22:06:00,58.6,53.5,30.03,SSE,148,0.0,0.0,83,0.00,,---,0.00,0.00,VWS V14.01,2013-09-29 02:06:00,
2013-09-28 22:10:00,58.3,53.2,30.03,SSE,148,0.0,0.0,83,0.00,,---,0.00,0.00,VWS V14.01,2013-09-29 02:10:00,
2013-09-28 22:11:00,58.2,53.1,30.03,SSE,148,0.0,0.0,83,0.00,,---,0.00,0.00,VWS V14.01,2013-09-29 02:11:00,
2013-09-28 22:15:00,58.0,52.9,30.03,SSE,148,0.0,0.0,83,0.00,,---,0.00,0.00,VWS V14.01,2013-09-29 02:15:00,
2013-09-28 22:16:00,57.9,52.8,30.03,SSE,148,0.0,0.0,83,0.00,,---,0.00,0.00,VWS V14.01,2013-09-29 02:16:00,
2013-09-28 22:20:00,57.6,52.8,30.03,SSE,148,0.0,0.0,84,0.00,,---,0.00,0.00,VWS V14.01,2013-09-29 02:20:00,
2013-09-28 22:21:00,57.5,52.7,30.03,SSE,148,0.0,0.0,84,0.00,,---,0.00,0.00,VWS V14.01,2013-09-29 02:21:00,
2013-09-28 22:25:00,57.3,52.5,30.03,SSE,148,0.0,0.0,84,0.00,,---,0.00,0.00,VWS V14.01,2013-09-29 02:25:00,
2013-09-28 22:26:00,57.1,52.3,30.03,SSE,148,0.0,0.0,84,0.00,,---,0.00,0.00,VWS V14.01,2013-09-29 02:26:00,
2013-09-28 22:30:00,56.9,52.1,30.03,SSE,148,0.0,0.0,84,0.00,,---,0.00,0.00,VWS V14.01,2013-09-29 02:30:00,
2013-09-28 22:31:00,56.8,52.3,30.02,SSE,148,0.0,0.0,85,0.00,,---,0.00,0.00,VWS V14.01,2013-09-29 02:31:00,
2013-09-28 22:35:00,56.7,52.2,30.02,SSE,148,0.0,0.0,85,0.00,,---,0.00,0.00,VWS V14.01,2013-09-29 02:35:00,
2013-09-28 22:36:00,56.6,52.5,30.02,SSE,148,0.0,0.0,86,0.00,,---,0.00,0.00,VWS V14.01,2013-09-29 02:36:00,
2013-09-28 22:40:00,56.4,52.3,30.03,SSE,148,0.0,0.0,86,0.00,,---,0.00,0.00,VWS V14.01,2013-09-29 02:40:00,
2013-09-28 22:41:00,56.3,52.2,30.03,SSE,148,0.0,0.0,86,0.00,,---,0.00,0.00,VWS V14.01,2013-09-29 02:41:00,
2013-09-28 22:45:00,56.2,52.4,30.02,SSE,148,0.0,0.0,87,0.00,,---,0.00,0.00,VWS V14.01,2013-09-29 02:45:00,
2013-09-28 22:47:00,56.1,52.3,30.02,SSE,148,0.0,0.0,87,0.00,,---,0.00,0.00,VWS V14.01,2013-09-29 02:47:00,
2013-09-28 22:50:00,55.9,52.1,30.02,SSE,148,0.0,0.0,87,0.00,,---,0.00,0.00,VWS V14.01,2013-09-29 02:50:00,
2013-09-28 22:52:00,55.8,52.0,30.02,SSE,148,0.0,0.0,87,0.00,,---,0.00,0.00,VWS V14.01,2013-09-29 02:52:00,
2013-09-28 22:55:00,55.7,51.9,30.02,SSE,148,0.0,0.0,87,0.00,,---,0.00,0.00,VWS V14.01,2013-09-29 02:55:00,
2013-09-28 22:57:00,55.6,51.8,30.02,SSE,148,0.0,0.0,87,0.00,,---,0.00,0.00,VWS V14.01,2013-09-29 02:57:00,
2013-09-28 23:00:00,55.5,51.7,30.02,SSE,148,0.0,0.0,87,0.00,,---,0.00,0.00,VWS V14.01,2013-09-29 03:00:00,
2013-09-28 23:02:00,55.4,51.6,30.01,SSE,148,0.0,0.0,87,0.00,,---,0.00,0.00,VWS V14.01,2013-09-29 03:02:00,
2013-09-28 23:05:00,55.3,51.5,30.01,SSE,148,0.0,0.0,87,0.00,,---,0.00,0.00,VWS V14.01,2013-09-29 03:05:00,
2013-09-28 23:07:00,55.1,51.3,30.02,SSE,148,0.0,0.0,87,0.00,,---,0.00,0.00,VWS V14.01,2013-09-29 03:07:00,
2013-09-28 23:10:00,55.0,51.2,30.02,SSE,148,0.0,0.0,87,0.00,,---,0.00,0.00,VWS V14.01,2013-09-29 03:10:00,
2013-09-28 23:12:00,54.9,51.4,30.01,SSE,148,0.0,0.0,88,0.00,,---,0.00,0.00,VWS V14.01,2013-09-29 03:12:00,
2013-09-28 23:15:00,54.8,51.0,30.02,SSE,148,0.0,0.0,87,0.00,,---,0.00,0.00,VWS V14.01,2013-09-29 03:15:00,
2013-09-28 23:17:00,54.7,50.9,30.02,SSE,148,0.0,0.0,87,0.00,,---,0.00,0.00,VWS V14.01,2013-09-29 03:17:00,
2013-09-28 23:20:00,54.5,50.7,30.02,SSE,148,0.0,0.0,87,0.00,,---,0.00,0.00,VWS V14.01,2013-09-29 03:20:00,
2013-09-28 23:22:00,54.4,50.6,30.02,SSE,148,0.0,0.0,87,0.00,,---,0.00,0.00,VWS V14.01,2013-09-29 03:22:00,
2013-09-28 23:25:00,54.3,50.8,30.02,SSE,148,0.0,0.0,88,0.00,,---,0.00,0.00,VWS V14.01,2013-09-29 03:25:00,
2013-09-28 23:27:00,54.2,50.7,30.01,SSE,148,0.0,0.0,88,0.00,,---,0.00,0.00,VWS V14.01,2013-09-29 03:27:00,
2013-09-28 23:30:00,54.1,50.6,30.01,SSE,148,0.0,0.0,88,0.00,,---,0.00,0.00,VWS V14.01,2013-09-29 03:30:00,
2013-09-28 23:32:00,54.0,50.5,30.01,SSE,148,0.0,0.0,88,0.00,,---,0.00,0.00,VWS V14.01,2013-09-29 03:32:00,
2013-09-28 23:35:00,53.9,50.4,30.01,SSE,148,0.0,0.0,88,0.00,,---,0.00,0.00,VWS V14.01,2013-09-29 03:35:00,
2013-09-28 23:37:00,53.8,50.3,30.01,SSE,148,0.0,0.0,88,0.00,,---,0.00,0.00,VWS V14.01,2013-09-29 03:37:00,
2013-09-28 23:40:00,53.7,50.5,30.01,SSE,148,0.0,0.0,89,0.00,,---,0.00,0.00,VWS V14.01,2013-09-29 03:40:00,
2013-09-28 23:42:00,53.7,50.2,30.01,SSE,148,0.0,0.0,88,0.00,,---,0.00,0.00,VWS V14.01,2013-09-29 03:42:00,
2013-09-28 23:45:00,53.6,50.4,30.01,SSE,148,0.0,0.0,89,0.00,,---,0.00,0.00,VWS V14.01,2013-09-29 03:45:00,
2013-09-28 23:47:00,53.5,50.3,30.01,SSE,148,0.0,0.0,89,0.00,,---,0.00,0.00,VWS V14.01,2013-09-29 03:47:00,
2013-09-28 23:50:00,53.5,50.3,30.01,SSE,148,0.0,0.0,89,0.00,,---,0.00,0.00,VWS V14.01,2013-09-29 03:50:00,
2013-09-28 23:52:00,53.4,50.2,30.02,SSE,148,0.0,0.0,89,0.00,,---,0.00,0.00,VWS V14.01,2013-09-29 03:52:00,
2013-09-28 23:55:00,53.4,50.2,30.02,SSE,148,0.0,0.0,89,0.00,,---,0.00,0.00,VWS V14.01,2013-09-29 03:55:00,
2013-09-28 23:57:00,53.3,50.2,30.02,SSE,148,0.0,0.0,89,0.00,,---,0.00,0.00,VWS V14.01,2013-09-29 03:57:00,